Time;durP1;ratioP1;P1;durP2;ratioP2;P2;SDS_P1;SDS_P2;PMS_P1;PMS_P2;Temp;Humidity;BMP_temperature;BMP_pressure;BME280_temperature;BME280_humidity;BME280_pressure;Samples;Min_cycle;Max_cycle;Signal;HPM_P1;HPM_P2
2022/01/13 00:01:30;;;;;;;;;;;;;;;-16.64;86.01;100671.55;1648802;85;20704;-64
2022/01/13 00:03:51;;;;;;;;;;;;;;;-16.70;85.73;100670.69;1636982;86;20197;-64
2022/01/13 00:06:20;;;;;;;;;;;;;;;-16.75;85.63;100677.60;1636730;86;20215;-64
2022/01/13 00:08:51;;;;;;;;;;;;;;;-16.83;85.29;100674.73;1628174;86;20205;-64
2022/01/13 00:11:22;;;;;;;;;;;;;;;-16.88;85.27;100681.28;1634368;87;20286;-64
2022/01/13 00:15:06;;;;;;;;;;;;;;;-16.91;85.69;100684.13;1640821;87;20627;-64
2022/01/13 00:19:20;;;;;;;;;;;;;;;-16.91;85.85;100681.50;1567126;86;20199;-64
2022/01/13 00:21:39;;;;;;;;;;;;;;;-16.95;85.55;100681.36;1638711;86;20236;-64
2022/01/13 00:24:12;;;;;;;;;;;;;;;-17.02;85.25;100682.28;1652845;85;21087;-64
2022/01/13 00:26:41;;;;;;;;;;;;;;;-17.07;85.28;100684.41;1647414;85;20194;-64
2022/01/13 00:29:11;;;;;;;;;;;;;;;-17.05;85.68;100688.59;1647677;86;20159;-64
2022/01/13 00:31:47;;;;;;;;;;;;;;;-16.94;86.47;100691.75;1620099;86;20145;-63
2022/01/13 00:34:21;;;;;;;;;;;;;;;-16.87;86.71;100689.52;1630439;87;20197;-64
2022/01/13 00:36:49;;;;;;;;;;;;;;;-16.79;86.97;100681.91;1626783;86;21100;-63
2022/01/13 00:39:17;;;;;;;;;;;;;;;-16.76;86.81;100682.52;1626876;87;20152;-64
2022/01/13 00:41:52;;;;;;;;;;;;;;;-16.71;87.27;100676.42;1629989;87;20203;-64
2022/01/13 00:44:21;;;;;;;;;;;;;;;-16.60;87.59;100674.75;1635355;87;20179;-64
2022/01/13 00:46:59;;;;;;;;;;;;;;;-16.53;87.47;100681.23;1647333;86;20211;-63
2022/01/13 00:49:27;;;;;;;;;;;;;;;-16.50;87.39;100682.31;1647794;85;20740;-64
2022/01/13 00:52:00;;;;;;;;;;;;;;;-16.53;87.01;100684.69;1633245;86;20474;-63
2022/01/13 00:54:37;;;;;;;;;;;;;;;-16.56;86.69;100684.92;1619713;86;20481;-63
2022/01/13 00:57:04;;;;;;;;;;;;;;;-16.59;86.63;100688.25;1629885;86;20164;-64
2022/01/13 00:59:32;;;;;;;;;;;;;;;-16.53;87.22;100694.37;1591668;89;20179;-64
2022/01/13 01:02:02;;;;;;;;;;;;;;;-16.45;87.76;100695.95;1572232;89;20221;-64
2022/01/13 01:04:28;;;;;;;;;;;;;;;-16.40;87.84;100695.13;1638885;86;20234;-63
2022/01/13 01:06:55;;;;;;;;;;;;;;;-16.35;87.97;100692.98;1638497;86;20223;-64
2022/01/13 01:09:38;;;;;;;;;;;;;;;-16.32;88.06;100692.75;1654756;86;20625;-64
2022/01/13 01:11:55;;;;;;;;;;;;;;;-16.33;87.83;100684.98;1646794;86;20203;-64
2022/01/13 01:14:25;;;;;;;;;;;;;;;-16.32;87.79;100676.98;1640506;86;20160;-63
2022/01/13 01:16:52;;;;;;;;;;;;;;;-16.33;87.50;100672.68;1650979;86;20139;-63
2022/01/13 01:19:26;;;;;;;;;;;;;;;-16.31;87.43;100671.25;1627226;87;20308;-64
2022/01/13 01:22:04;;;;;;;;;;;;;;;-16.34;87.37;100672.31;1608784;88;20190;-63
2022/01/13 01:29:25;;;;;;;;;;;;;;;-16.59;85.91;100675.11;1629899;86;21628;-63
2022/01/13 01:31:51;;;;;;;;;;;;;;;-16.69;85.75;100678.09;1622600;86;20181;-64
2022/01/13 01:37:03;;;;;;;;;;;;;;;-16.68;86.81;100679.30;1626777;86;20225;-63
2022/01/13 01:39:29;;;;;;;;;;;;;;;-16.54;87.88;100683.49;1627295;86;21935;-63
2022/01/13 01:41:57;;;;;;;;;;;;;;;-16.43;88.21;100676.95;1636133;86;20536;-63
2022/01/13 01:44:36;;;;;;;;;;;;;;;-16.33;88.31;100675.30;1632380;86;20125;-63
2022/01/13 01:46:58;;;;;;;;;;;;;;;-16.25;88.49;100670.30;1633683;86;20837;-63
2022/01/13 01:49:25;;;;;;;;;;;;;;;-16.19;88.50;100664.58;1631009;87;20504;-64
2022/01/13 01:51:57;;;;;;;;;;;;;;;-16.16;88.78;100660.37;1637735;86;20209;-63
2022/01/13 01:54:24;;;;;;;;;;;;;;;-16.10;88.83;100659.89;1632876;86;20472;-63
2022/01/13 01:56:50;;;;;;;;;;;;;;;-16.07;88.76;100651.77;1634448;86;20462;-63
2022/01/13 01:59:19;;;;;;;;;;;;;;;-16.01;89.50;100653.09;1646981;86;20210;-63
2022/01/13 02:01:46;;;;;;;;;;;;;;;-15.90;89.76;100652.25;1647963;86;20184;-63
2022/01/13 02:04:13;;;;;;;;;;;;;;;-15.85;89.61;100636.95;1664476;86;21148;-63
2022/01/13 02:06:39;;;;;;;;;;;;;;;-15.82;89.59;100644.60;1656595;86;20530;-64
2022/01/13 02:09:08;;;;;;;;;;;;;;;-15.80;89.50;100642.20;1658058;86;20243;-63
2022/01/13 02:11:41;;;;;;;;;;;;;;;-15.78;89.33;100636.83;1663359;86;21177;-64
2022/01/13 02:14:10;;;;;;;;;;;;;;;-15.75;89.53;100641.84;1651835;86;20242;-63
2022/01/13 02:19:03;;;;;;;;;;;;;;;-15.67;89.46;100634.19;1650861;86;20191;-63
2022/01/13 02:21:29;;;;;;;;;;;;;;;-15.67;89.25;100624.97;1646911;86;20172;-63
2022/01/13 02:23:57;;;;;;;;;;;;;;;-15.71;88.87;100622.23;1652213;86;20170;-63
2022/01/13 02:26:23;;;;;;;;;;;;;;;-15.78;88.92;100623.19;1635960;86;20204;-64
2022/01/13 02:28:51;;;;;;;;;;;;;;;-15.78;89.47;100631.08;1633789;86;21120;-64
2022/01/13 02:31:18;;;;;;;;;;;;;;;-15.80;89.25;100629.53;1640707;86;20156;-64
2022/01/13 02:33:45;;;;;;;;;;;;;;;-15.84;89.02;100629.41;1645495;86;20178;-63
2022/01/13 02:36:12;;;;;;;;;;;;;;;-15.86;88.94;100628.70;1628365;86;20282;-63
2022/01/13 02:38:38;;;;;;;;;;;;;;;-15.89;88.80;100627.14;1631423;85;20234;-63
2022/01/13 02:41:04;;;;;;;;;;;;;;;-15.91;88.71;100617.70;1655504;86;21058;-63
2022/01/13 02:43:34;;;;;;;;;;;;;;;-15.95;88.78;100617.09;1656422;84;20660;-63
2022/01/13 02:46:18;;;;;;;;;;;;;;;-15.96;88.82;100617.22;1638253;86;20125;-63
2022/01/13 02:48:35;;;;;;;;;;;;;;;-15.92;89.29;100625.23;1636579;86;20171;-63
2022/01/13 02:51:02;;;;;;;;;;;;;;;-15.91;89.48;100613.75;1611732;86;20178;-63
2022/01/13 02:53:28;;;;;;;;;;;;;;;-15.94;89.05;100616.14;1648605;86;21133;-63
2022/01/13 02:55:56;;;;;;;;;;;;;;;-15.94;89.36;100607.41;1646796;86;20178;-63
2022/01/13 02:58:22;;;;;;;;;;;;;;;-15.91;89.67;100603.23;1659224;85;20503;-63
2022/01/13 03:00:49;;;;;;;;;;;;;;;-15.89;89.68;100597.36;1635660;86;20203;-63
2022/01/13 03:03:15;;;;;;;;;;;;;;;-15.82;90.08;100601.19;1642390;86;20208;-63
2022/01/13 03:05:41;;;;;;;;;;;;;;;-15.78;90.10;100592.92;1652914;85;21131;-63
2022/01/13 03:08:08;;;;;;;;;;;;;;;-15.75;89.96;100586.59;1638498;85;20507;-63
2022/01/13 03:10:35;;;;;;;;;;;;;;;-15.70;90.14;100583.11;1647853;85;20228;-63
2022/01/13 03:13:02;;;;;;;;;;;;;;;-15.65;90.30;100572.21;1638911;86;22148;-63
2022/01/13 03:15:28;;;;;;;;;;;;;;;-15.62;90.18;100583.33;1634149;86;20248;-63
2022/01/13 03:17:54;;;;;;;;;;;;;;;-15.57;90.25;100592.98;1638216;86;21112;-63
2022/01/13 03:20:20;;;;;;;;;;;;;;;-15.55;90.01;100603.36;1648732;85;20181;-63
2022/01/13 03:22:47;;;;;;;;;;;;;;;-15.57;89.86;100592.98;1636946;85;20233;-64
2022/01/13 03:25:15;;;;;;;;;;;;;;;-15.57;89.91;100589.03;1646044;85;20209;-64
2022/01/13 03:27:41;;;;;;;;;;;;;;;-15.58;89.72;100582.58;1653900;85;20149;-64
2022/01/13 03:30:09;;;;;;;;;;;;;;;-15.60;89.81;100577.47;1644873;86;23300;-63
2022/01/13 03:32:36;;;;;;;;;;;;;;;-15.60;90.07;100580.09;1643521;86;20451;-64
2022/01/13 03:35:03;;;;;;;;;;;;;;;-15.62;89.82;100572.80;1645621;86;20535;-64
2022/01/13 03:37:29;;;;;;;;;;;;;;;-15.64;89.70;100592.31;1645445;86;20161;-64
2022/01/13 03:39:57;;;;;;;;;;;;;;;-15.67;89.72;100593.39;1654039;86;20484;-64
2022/01/13 03:42:23;;;;;;;;;;;;;;;-15.74;89.41;100581.20;1657965;85;20428;-64
2022/01/13 03:44:51;;;;;;;;;;;;;;;-15.78;89.56;100580.25;1651969;85;20130;-64
2022/01/13 03:47:17;;;;;;;;;;;;;;;-15.81;89.69;100585.75;1660217;85;20432;-64
2022/01/13 03:49:44;;;;;;;;;;;;;;;-15.84;89.53;100582.05;1647579;85;20227;-63
2022/01/13 03:52:26;;;;;;;;;;;;;;;-15.86;89.36;100580.02;1635185;86;20212;-63
2022/01/13 03:55:13;;;;;;;;;;;;;;;-15.91;89.19;100576.92;1639719;86;21170;-64
2022/01/13 03:58:17;;;;;;;;;;;;;;;-15.95;89.03;100576.33;1636514;86;20176;-63
2022/01/13 04:01:00;;;;;;;;;;;;;;;-15.98;89.29;100581.83;1662468;86;21000;-63
2022/01/13 04:03:26;;;;;;;;;;;;;;;-16.04;89.18;100579.20;1642431;86;20211;-63
2022/01/13 04:06:09;;;;;;;;;;;;;;;-16.09;89.47;100585.30;1656129;86;20194;-63
2022/01/13 04:08:35;;;;;;;;;;;;;;;-16.12;89.63;100597.84;1643908;86;21849;-64
2022/01/13 04:11:11;;;;;;;;;;;;;;;-16.14;89.76;100588.77;1661715;86;20194;-64
2022/01/13 04:13:51;;;;;;;;;;;;;;;-16.10;89.89;100602.52;1656569;86;20211;-64
2022/01/13 04:16:12;;;;;;;;;;;;;;;-16.08;90.32;100614.59;1661532;86;20154;-64
2022/01/13 04:18:38;;;;;;;;;;;;;;;-16.06;90.30;100617.94;1637439;87;20206;-64
2022/01/13 04:21:04;;;;;;;;;;;;;;;-16.05;90.76;100616.98;1631252;86;21824;-63
2022/01/13 04:23:31;;;;;;;;;;;;;;;-16.04;90.92;100617.34;1646440;86;20502;-63
2022/01/13 04:25:58;;;;;;;;;;;;;;;-16.02;90.99;100609.80;1636967;86;20172;-63
2022/01/13 04:28:28;;;;;;;;;;;;;;;-15.97;91.40;100611.59;1638636;86;20243;-63
2022/01/13 04:31:00;;;;;;;;;;;;;;;-15.93;91.80;100615.19;1643733;86;20186;-63
2022/01/13 04:33:23;;;;;;;;;;;;;;;-15.92;91.79;100613.39;1644939;86;21191;-64
2022/01/13 04:35:49;;;;;;;;;;;;;;;-15.87;91.91;100601.55;1636514;86;20212;-63
2022/01/13 04:38:15;;;;;;;;;;;;;;;-15.79;91.99;100598.31;1644002;86;20509;-63
2022/01/13 04:40:44;;;;;;;;;;;;;;;-15.70;92.08;100592.31;1638054;86;20796;-64
2022/01/13 04:43:11;;;;;;;;;;;;;;;-15.61;92.25;100588.95;1642625;85;20152;-63
2022/01/13 04:45:37;;;;;;;;;;;;;;;-15.54;92.22;100586.60;1628563;86;21120;-64
2022/01/13 04:48:04;;;;;;;;;;;;;;;-15.49;92.18;100578.69;1636967;86;20136;-63
2022/01/13 04:50:32;;;;;;;;;;;;;;;-15.37;92.51;100573.75;1643544;86;20197;-64
2022/01/13 04:52:58;;;;;;;;;;;;;;;-15.26;92.54;100574.19;1652071;85;22207;-64
2022/01/13 04:55:29;;;;;;;;;;;;;;;-15.17;92.41;100556.80;1652847;85;20643;-65
2022/01/13 04:57:52;;;;;;;;;;;;;;;-15.11;92.31;100544.44;1643639;86;21154;-63
2022/01/13 05:00:19;;;;;;;;;;;;;;;-15.03;92.25;100545.95;1626960;87;20499;-63
2022/01/13 05:02:45;;;;;;;;;;;;;;;-14.95;92.29;100540.02;1639825;86;20179;-64
2022/01/13 05:05:11;;;;;;;;;;;;;;;-14.92;92.15;100531.38;1624213;85;22176;-63
2022/01/13 05:07:38;;;;;;;;;;;;;;;-14.92;91.87;100537.12;1650547;85;20257;-64
2022/01/13 05:10:06;;;;;;;;;;;;;;;-14.91;92.04;100531.73;1658752;85;21173;-64
2022/01/13 05:12:39;;;;;;;;;;;;;;;-14.86;92.43;100528.22;1624202;87;20132;-65
2022/01/13 05:15:06;;;;;;;;;;;;;;;-14.79;92.63;100530.70;1626666;87;20172;-64
2022/01/13 05:18:01;;;;;;;;;;;;;;;-14.72;92.63;100524.42;1637303;86;20140;-64
2022/01/13 05:20:17;;;;;;;;;;;;;;;-14.64;92.64;100521.14;1612219;88;20115;-65
2022/01/13 05:22:40;;;;;;;;;;;;;;;-14.56;92.54;100525.28;1641149;86;21166;-64
2022/01/13 05:25:08;;;;;;;;;;;;;;;-14.46;92.89;100515.61;1651415;86;20107;-64
2022/01/13 05:27:34;;;;;;;;;;;;;;;-14.36;92.75;100511.16;1641365;86;20518;-64
2022/01/13 05:30:03;;;;;;;;;;;;;;;-14.32;92.51;100502.02;1636268;87;20167;-64
2022/01/13 05:32:29;;;;;;;;;;;;;;;-14.30;92.28;100489.52;1630936;88;20187;-64
2022/01/13 05:34:55;;;;;;;;;;;;;;;-14.26;92.22;100479.54;1640277;86;21161;-64
2022/01/13 05:37:21;;;;;;;;;;;;;;;-14.24;91.99;100473.16;1643942;86;20124;-64
2022/01/13 05:39:47;;;;;;;;;;;;;;;-14.22;91.89;100480.45;1627557;87;20132;-64
2022/01/13 05:42:14;;;;;;;;;;;;;;;-14.21;91.75;100483.93;1640325;86;22194;-64
2022/01/13 05:44:40;;;;;;;;;;;;;;;-14.17;91.86;100476.94;1640091;85;20173;-64
2022/01/13 05:47:08;;;;;;;;;;;;;;;-14.12;91.89;100469.45;1634984;86;21413;-64
2022/01/13 05:49:34;;;;;;;;;;;;;;;-14.07;92.00;100471.69;1638331;86;20446;-64
2022/01/13 05:52:03;;;;;;;;;;;;;;;-14.02;92.10;100455.80;1631798;86;20175;-64
2022/01/13 05:54:30;;;;;;;;;;;;;;;-13.96;92.20;100464.97;1635623;86;20156;-64
2022/01/13 05:56:56;;;;;;;;;;;;;;;-13.88;92.37;100457.20;1629936;87;20124;-64
2022/01/13 05:59:23;;;;;;;;;;;;;;;-13.75;92.56;100476.23;1634900;86;23326;-64
2022/01/13 06:01:49;;;;;;;;;;;;;;;-13.63;92.73;100476.10;1646077;86;20459;-64
2022/01/13 06:04:15;;;;;;;;;;;;;;;-13.52;92.83;100482.09;1634705;86;20179;-64
2022/01/13 06:06:42;;;;;;;;;;;;;;;-13.40;93.02;100478.82;1633917;86;20132;-65
2022/01/13 06:09:08;;;;;;;;;;;;;;;-13.21;93.57;100484.07;1649064;86;20472;-64
2022/01/13 06:11:40;;;;;;;;;;;;;;;-13.06;93.72;100468.09;1645186;85;21160;-64
2022/01/13 06:14:06;;;;;;;;;;;;;;;-12.92;93.70;100465.98;1662015;85;20228;-64
2022/01/13 06:16:32;;;;;;;;;;;;;;;-12.80;93.67;100472.29;1660165;85;20129;-64
2022/01/13 06:19:01;;;;;;;;;;;;;;;-12.68;93.75;100471.59;1653918;85;20701;-64
2022/01/13 06:21:27;;;;;;;;;;;;;;;-12.55;93.83;100469.95;1654450;85;20132;-65
2022/01/13 06:23:53;;;;;;;;;;;;;;;-12.40;94.05;100460.57;1646520;86;21078;-64
2022/01/13 06:26:19;;;;;;;;;;;;;;;-12.28;93.87;100473.12;1660950;85;20145;-64
2022/01/13 06:28:45;;;;;;;;;;;;;;;-12.20;93.67;100476.70;1664297;85;20100;-64
2022/01/13 06:31:11;;;;;;;;;;;;;;;-12.14;93.69;100489.84;1660839;85;20126;-63
2022/01/13 06:33:38;;;;;;;;;;;;;;;-12.03;93.81;100503.69;1669689;85;20084;-63
2022/01/13 06:36:05;;;;;;;;;;;;;;;-11.95;93.73;100480.45;1646861;85;21096;-63
2022/01/13 06:38:32;;;;;;;;;;;;;;;-11.86;93.76;100471.61;1659863;85;20105;-64
2022/01/13 06:40:58;;;;;;;;;;;;;;;-11.78;93.65;100469.05;1662148;85;20157;-64
2022/01/13 06:43:24;;;;;;;;;;;;;;;-11.71;93.63;100461.31;1664292;85;20150;-64
2022/01/13 06:45:51;;;;;;;;;;;;;;;-11.62;93.66;100460.91;1656464;85;20117;-64
2022/01/13 06:48:17;;;;;;;;;;;;;;;-11.57;93.57;100468.73;1660168;85;21138;-63
2022/01/13 06:50:43;;;;;;;;;;;;;;;-11.49;93.65;100452.05;1662549;85;21646;-63
2022/01/13 06:53:10;;;;;;;;;;;;;;;-11.43;93.57;100443.00;1670358;85;20112;-63
2022/01/13 06:55:36;;;;;;;;;;;;;;;-11.37;93.57;100430.47;1651103;85;21404;-63
2022/01/13 06:58:04;;;;;;;;;;;;;;;-11.27;93.68;100420.28;1663152;85;20154;-63
2022/01/13 07:00:32;;;;;;;;;;;;;;;-11.21;93.68;100419.66;1668224;85;21194;-64
2022/01/13 07:03:01;;;;;;;;;;;;;;;-11.12;93.79;100420.89;1655734;85;20464;-64
2022/01/13 07:05:26;;;;;;;;;;;;;;;-11.02;93.88;100404.88;1673184;85;20145;-64
2022/01/13 07:07:53;;;;;;;;;;;;;;;-10.91;93.95;100410.39;1656510;85;20128;-64
2022/01/13 07:10:21;;;;;;;;;;;;;;;-10.81;94.05;100406.64;1647823;84;20173;-63
2022/01/13 07:12:48;;;;;;;;;;;;;;;-10.68;94.18;100408.88;1668385;85;21800;-63
2022/01/13 07:15:14;;;;;;;;;;;;;;;-10.54;94.34;100394.18;1673465;84;20117;-63
2022/01/13 07:17:41;;;;;;;;;;;;;;;-10.41;94.33;100393.24;1665153;85;20157;-63
2022/01/13 07:20:09;;;;;;;;;;;;;;;-10.28;94.42;100389.61;1666313;85;20097;-64
2022/01/13 07:22:37;;;;;;;;;;;;;;;-10.14;94.49;100395.59;1673258;85;20534;-64
2022/01/13 07:25:05;;;;;;;;;;;;;;;-10.04;94.35;100384.34;1669302;85;22033;-64
2022/01/13 07:27:31;;;;;;;;;;;;;;;-9.91;94.42;100375.91;1658331;85;20177;-63
2022/01/13 07:29:58;;;;;;;;;;;;;;;-9.82;94.29;100360.80;1654200;85;20134;-64
2022/01/13 07:32:24;;;;;;;;;;;;;;;-9.73;94.19;100361.95;1665618;85;20652;-64
2022/01/13 07:34:50;;;;;;;;;;;;;;;-9.63;94.15;100356.47;1689506;84;20172;-64
2022/01/13 07:37:18;;;;;;;;;;;;;;;-9.52;94.24;100353.98;1646095;85;40288;-64
2022/01/13 07:39:44;;;;;;;;;;;;;;;-9.42;94.07;100350.16;1669043;84;20117;-64
2022/01/13 07:42:10;;;;;;;;;;;;;;;-9.30;94.30;100345.83;1671708;84;20116;-64
2022/01/13 07:44:37;;;;;;;;;;;;;;;-9.17;94.32;100338.14;1664076;85;20110;-64
2022/01/13 07:47:04;;;;;;;;;;;;;;;-9.06;94.17;100336.45;1653611;85;20480;-64
2022/01/13 07:49:30;;;;;;;;;;;;;;;-8.93;94.20;100341.25;1657921;85;21932;-64
2022/01/13 07:51:58;;;;;;;;;;;;;;;-8.84;94.10;100334.40;1664758;85;20176;-64
2022/01/13 07:54:27;;;;;;;;;;;;;;;-8.73;94.11;100324.72;1668376;85;20117;-64
2022/01/13 07:56:54;;;;;;;;;;;;;;;-8.62;94.07;100317.33;1657322;85;20118;-63
2022/01/13 07:59:27;;;;;;;;;;;;;;;-8.53;93.94;100312.29;1667641;84;20178;-63
2022/01/13 08:01:50;;;;;;;;;;;;;;;-8.43;93.97;100303.59;1663136;84;21140;-63
2022/01/13 08:04:17;;;;;;;;;;;;;;;-8.32;93.98;100293.34;1668993;84;20444;-64
2022/01/13 08:06:43;;;;;;;;;;;;;;;-8.22;93.82;100292.29;1669507;84;20174;-64
2022/01/13 08:09:09;;;;;;;;;;;;;;;-8.15;93.56;100286.08;1666286;84;22147;-64
2022/01/13 08:11:36;;;;;;;;;;;;;;;-8.09;93.20;100276.55;1672990;84;20595;-64
2022/01/13 08:14:02;;;;;;;;;;;;;;;-8.05;93.10;100275.16;1662042;84;21141;-64
2022/01/13 08:16:33;;;;;;;;;;;;;;;-7.99;93.45;100276.61;1658807;84;20142;-64
2022/01/13 08:21:42;;;;;;;;;;;;;;;-7.76;93.48;100279.77;1667152;85;20138;-64
2022/01/13 08:24:08;;;;;;;;;;;;;;;-7.63;93.64;100296.50;1692287;84;20478;-66
2022/01/13 08:26:35;;;;;;;;;;;;;;;-7.54;93.77;100294.91;1668505;84;21160;-66
2022/01/13 08:29:04;;;;;;;;;;;;;;;-7.42;93.60;100294.77;1680044;84;20513;-66
2022/01/13 08:31:31;;;;;;;;;;;;;;;-7.29;93.62;100294.66;1693443;84;20096;-62
2022/01/13 08:33:57;;;;;;;;;;;;;;;-7.15;93.58;100288.51;1683217;84;20161;-63
2022/01/13 08:36:23;;;;;;;;;;;;;;;-7.06;93.15;100284.74;1668280;84;20476;-61
2022/01/13 08:38:49;;;;;;;;;;;;;;;-6.99;92.77;100274.98;1681076;84;21137;-66
2022/01/13 08:41:16;;;;;;;;;;;;;;;-6.91;92.77;100254.84;1682309;84;20128;-63
2022/01/13 08:43:42;;;;;;;;;;;;;;;-6.84;92.39;100243.75;1668279;85;20444;-65
2022/01/13 08:46:09;;;;;;;;;;;;;;;-6.79;92.17;100256.03;1680329;84;20181;-66
2022/01/13 08:48:35;;;;;;;;;;;;;;;-6.75;91.87;100249.30;1667587;85;20085;-63
2022/01/13 08:51:03;;;;;;;;;;;;;;;-6.69;91.90;100241.05;1692369;84;23342;-64
2022/01/13 08:53:29;;;;;;;;;;;;;;;-6.60;92.07;100246.61;1679738;84;20303;-65
2022/01/13 08:55:58;;;;;;;;;;;;;;;-6.53;91.52;100254.70;1667972;84;20143;-64
2022/01/13 08:58:24;;;;;;;;;;;;;;;-6.48;91.86;100246.95;1686102;84;20186;-62
2022/01/13 09:00:52;;;;;;;;;;;;;;;-6.41;91.81;100249.19;1668720;84;20464;-62
2022/01/13 09:03:18;;;;;;;;;;;;;;;-6.36;91.62;100242.27;1659016;85;21929;-64
2022/01/13 09:05:44;;;;;;;;;;;;;;;-6.30;91.98;100251.34;1665576;84;20113;-62
2022/01/13 09:08:12;;;;;;;;;;;;;;;-6.27;91.42;100244.28;1662539;85;20496;-64
2022/01/13 09:10:40;;;;;;;;;;;;;;;-6.26;91.46;100235.25;1655790;85;20130;-64
2022/01/13 09:13:08;;;;;;;;;;;;;;;-6.17;91.70;100227.42;1659397;85;20483;-64
2022/01/13 09:15:37;;;;;;;;;;;;;;;-6.08;91.44;100220.11;1661935;85;21963;-64
2022/01/13 09:18:09;;;;;;;;;;;;;;;-5.98;91.59;100203.23;1668776;85;20088;-64
2022/01/13 09:20:36;;;;;;;;;;;;;;;-5.88;91.22;100199.70;1658070;84;20133;-65
2022/01/13 09:23:02;;;;;;;;;;;;;;;-5.81;91.14;100191.73;1673627;84;20460;-66
2022/01/13 09:25:29;;;;;;;;;;;;;;;-5.77;91.08;100189.78;1672217;85;20153;-65
2022/01/13 09:27:55;;;;;;;;;;;;;;;-5.71;91.19;100179.64;1662109;85;21810;-64
2022/01/13 09:30:21;;;;;;;;;;;;;;;-5.62;91.10;100176.31;1663516;85;21652;-66
2022/01/13 09:32:48;;;;;;;;;;;;;;;-5.59;90.92;100179.93;1645489;85;20157;-72
2022/01/13 09:35:14;;;;;;;;;;;;;;;-5.56;90.96;100172.85;1659484;85;20118;-68
2022/01/13 09:37:40;;;;;;;;;;;;;;;-5.55;90.91;100187.05;1675411;85;20460;-67
2022/01/13 09:40:09;;;;;;;;;;;;;;;-5.53;91.41;100197.88;1663316;84;21139;-68
2022/01/13 09:42:36;;;;;;;;;;;;;;;-5.48;91.59;100191.94;1672373;84;20106;-67
2022/01/13 09:45:04;;;;;;;;;;;;;;;-5.44;91.69;100186.00;1676167;84;20244;-67
2022/01/13 09:47:31;;;;;;;;;;;;;;;-5.40;91.63;100175.22;1672402;84;20096;-67
2022/01/13 09:50:00;;;;;;;;;;;;;;;-5.36;91.57;100157.75;1688469;84;20145;-67
2022/01/13 09:52:27;;;;;;;;;;;;;;;-5.35;91.68;100154.56;1679733;84;21049;-68
2022/01/13 09:54:55;;;;;;;;;;;;;;;-5.39;91.38;100140.75;1672693;84;20163;-67
2022/01/13 09:57:22;;;;;;;;;;;;;;;-5.39;91.93;100125.20;1668058;84;20100;-67
2022/01/13 09:59:49;;;;;;;;;;;;;;;-5.34;92.10;100132.13;1682228;84;20678;-67
2022/01/13 10:02:15;;;;;;;;;;;;;;;-5.26;92.61;100129.80;1671422;85;20144;-67
2022/01/13 10:04:46;;;;;;;;;;;;;;;-5.17;92.80;100124.56;1653058;86;21089;-67
2022/01/13 10:07:18;;;;;;;;;;;;;;;-5.08;92.64;100130.06;1683472;84;20137;-67
2022/01/13 10:09:54;;;;;;;;;;;;;;;-5.09;92.18;100127.89;1652583;85;20503;-67
2022/01/13 10:12:30;;;;;;;;;;;;;;;-5.09;92.17;100121.71;1661805;84;20133;-66
2022/01/13 10:17:48;;;;;;;;;;;;;;;-5.02;92.42;100110.00;1685156;84;21207;-69
2022/01/13 10:20:16;;;;;;;;;;;;;;;-5.01;92.41;100104.96;1666545;84;20205;-68
2022/01/13 10:22:42;;;;;;;;;;;;;;;-5.00;92.75;100102.59;1656896;85;20177;-66
2022/01/13 10:25:29;;;;;;;;;;;;;;;-4.96;93.03;100090.97;1657700;85;20650;-66
2022/01/13 10:27:58;;;;;;;;;;;;;;;-4.95;92.58;100076.55;1662304;84;20491;-68
2022/01/13 10:30:25;;;;;;;;;;;;;;;-4.90;92.95;100059.36;1667795;84;21190;-68
2022/01/13 10:32:52;;;;;;;;;;;;;;;-4.86;92.86;100048.56;1671969;84;20161;-67
2022/01/13 10:35:20;;;;;;;;;;;;;;;-4.83;92.98;100038.78;1650921;84;20408;-66
2022/01/13 10:37:57;;;;;;;;;;;;;;;-4.80;93.28;100039.71;1627140;87;20180;-67
2022/01/13 10:40:26;;;;;;;;;;;;;;;-4.76;93.08;100030.75;1630061;86;20123;-65
2022/01/13 10:45:41;;;;;;;;;;;;;;;-4.72;93.30;100040.86;1636077;87;20144;-65
2022/01/13 10:48:19;;;;;;;;;;;;;;;-4.70;93.12;100028.59;1637923;87;20104;-64
2022/01/13 10:50:52;;;;;;;;;;;;;;;-4.68;93.37;100023.34;1638082;87;20156;-65
2022/01/13 10:53:30;;;;;;;;;;;;;;;-4.63;93.68;100015.20;1635077;87;20125;-65
2022/01/13 10:55:59;;;;;;;;;;;;;;;-4.59;93.35;100010.55;1633702;87;21187;-65
2022/01/13 10:58:29;;;;;;;;;;;;;;;-4.57;93.21;100007.66;1612932;87;20134;-64
2022/01/13 11:00:56;;;;;;;;;;;;;;;-4.56;93.31;100002.09;1633657;86;20438;-65
2022/01/13 11:03:24;;;;;;;;;;;;;;;-4.53;93.24;100003.02;1625754;85;20173;-65
2022/01/13 11:05:56;;;;;;;;;;;;;;;-4.51;93.69;99998.80;1648189;85;20073;-64
2022/01/13 11:08:37;;;;;;;;;;;;;;;-4.50;93.86;99989.20;1648512;86;21140;-65
2022/01/13 11:11:02;;;;;;;;;;;;;;;-4.49;93.56;99973.95;1644791;86;20101;-65
2022/01/13 11:13:30;;;;;;;;;;;;;;;-4.50;93.79;99969.63;1653783;85;20176;-65
2022/01/13 11:15:56;;;;;;;;;;;;;;;-4.44;94.73;99964.26;1637249;85;20369;-66
2022/01/13 11:18:30;;;;;;;;;;;;;;;-4.39;94.00;99969.00;1655058;85;20146;-66
2022/01/13 11:20:57;;;;;;;;;;;;;;;-4.35;95.04;99965.69;1637321;86;21158;-66
2022/01/13 11:23:24;;;;;;;;;;;;;;;-4.28;94.12;99962.18;1636970;86;20249;-66
2022/01/13 11:25:53;;;;;;;;;;;;;;;-4.24;94.21;99960.21;1635223;86;20469;-66
2022/01/13 11:28:20;;;;;;;;;;;;;;;-4.21;94.05;99957.11;1642028;86;20515;-66
2022/01/13 11:30:49;;;;;;;;;;;;;;;-4.18;94.30;99944.62;1652864;86;20146;-66
2022/01/13 11:33:15;;;;;;;;;;;;;;;-4.12;94.12;99929.55;1648156;86;21355;-66
2022/01/13 11:35:45;;;;;;;;;;;;;;;-4.08;94.34;99933.47;1641737;86;20169;-65
2022/01/13 11:38:11;;;;;;;;;;;;;;;-4.03;94.09;99930.42;1646083;86;20457;-65
2022/01/13 11:40:40;;;;;;;;;;;;;;;-3.97;93.84;99935.46;1640406;86;20195;-64
2022/01/13 11:43:09;;;;;;;;;;;;;;;-3.94;93.74;99923.48;1629930;87;20211;-65
2022/01/13 11:45:40;;;;;;;;;;;;;;;-3.94;93.61;99916.27;1633425;86;21183;-66
2022/01/13 11:48:12;;;;;;;;;;;;;;;-3.95;93.44;99919.16;1631489;87;20172;-65
2022/01/13 11:50:51;;;;;;;;;;;;;;;-4.01;93.63;99914.95;1638315;87;20229;-66
2022/01/13 11:53:25;;;;;;;;;;;;;;;-4.07;93.62;99911.80;1633205;87;20152;-65
2022/01/13 11:55:54;;;;;;;;;;;;;;;-4.11;94.34;99909.23;1636074;86;20129;-65
2022/01/13 11:58:25;;;;;;;;;;;;;;;-4.13;94.37;99906.46;1640569;87;21975;-66
2022/01/13 12:00:51;;;;;;;;;;;;;;;-4.15;94.61;99899.97;1652041;86;20153;-66
2022/01/13 12:03:28;;;;;;;;;;;;;;;-4.16;95.21;99897.50;1640098;86;20452;-69
2022/01/13 12:05:56;;;;;;;;;;;;;;;-4.21;95.35;99899.98;1635485;85;20128;-66
2022/01/13 12:08:37;;;;;;;;;;;;;;;-4.28;95.91;99905.38;1635269;85;20146;-66
2022/01/13 12:11:06;;;;;;;;;;;;;;;-4.29;96.42;99914.96;1632279;86;21125;-70
2022/01/13 12:13:37;;;;;;;;;;;;;;;-4.30;96.88;99920.02;1649589;86;20123;-66
2022/01/13 12:16:05;;;;;;;;;;;;;;;-4.30;97.15;99918.16;1643128;86;20263;-65
2022/01/13 12:18:59;;;;;;;;;;;;;;;-4.29;97.54;99927.84;1633213;86;20196;-66
2022/01/13 12:21:34;;;;;;;;;;;;;;;-4.27;97.58;99923.62;1628122;86;20159;-66
2022/01/13 12:24:02;;;;;;;;;;;;;;;-4.23;97.73;99897.52;1636918;86;21143;-66
2022/01/13 12:26:35;;;;;;;;;;;;;;;-4.16;97.88;99902.34;1643738;85;20149;-66
2022/01/13 12:29:22;;;;;;;;;;;;;;;-4.12;97.61;99892.84;1666387;85;20192;-65
2022/01/13 12:32:02;;;;;;;;;;;;;;;-4.08;97.91;99888.70;1663574;85;20448;-65
2022/01/13 12:34:36;;;;;;;;;;;;;;;-3.99;98.13;99885.23;1631330;86;20142;-65
2022/01/13 12:37:15;;;;;;;;;;;;;;;-3.94;97.96;99880.05;1654024;85;21125;-65
2022/01/13 12:39:56;;;;;;;;;;;;;;;-3.92;97.81;99873.14;1642115;86;20140;-65
2022/01/13 12:42:32;;;;;;;;;;;;;;;-3.92;97.81;99872.62;1654474;86;20111;-65
2022/01/13 12:47:39;;;;;;;;;;;;;;;-4.01;98.11;99836.36;1641744;86;20479;-66
2022/01/13 12:50:18;;;;;;;;;;;;;;;-4.06;98.50;99823.62;1658996;86;23277;-65
2022/01/13 12:52:44;;;;;;;;;;;;;;;-4.06;99.16;99812.06;1652632;86;20198;-66
2022/01/13 12:55:11;;;;;;;;;;;;;;;-4.08;99.60;99797.53;1662844;86;20452;-66
2022/01/13 12:57:46;;;;;;;;;;;;;;;-4.07;99.91;99790.31;1651462;86;20655;-65
2022/01/13 13:00:13;;;;;;;;;;;;;;;-4.08;99.89;99784.64;1656472;86;20101;-65
2022/01/13 13:02:55;;;;;;;;;;;;;;;-4.11;100.00;99781.05;1656638;86;21170;-65
2022/01/13 13:05:33;;;;;;;;;;;;;;;-4.11;100.00;99784.56;1651675;86;20101;-65